Time;durP1;ratioP1;P1;durP2;ratioP2;P2;SDS_P1;SDS_P2;PMS_P1;PMS_P2;Temp;Humidity;BMP_temperature;BMP_pressure;BME280_temperature;BME280_humidity;BME280_pressure;Samples;Min_cycle;Max_cycle;Signal;HPM_P1;HPM_P2
2021/12/07 00:01:55;;;;;;;;;2.00;2.00;;;;;;;;5055672;28;45243;-75
2021/12/07 00:04:20;;;;;;;;;1.50;1.50;;;;;;;;5055426;28;45243;-74
2021/12/07 00:06:46;;;;;;;;;2.00;2.00;;;;;;;;5056112;28;45962;-74
2021/12/07 00:09:13;;;;;;;;;2.75;2.75;;;;;;;;5055424;28;45337;-73
2021/12/07 00:11:38;;;;;;;;;3.25;3.00;;;;;;;;5055146;28;48757;-74
2021/12/07 00:14:12;;;;;;;;;3.00;2.25;;;;;;;;5055303;28;45517;-74
2021/12/07 00:16:37;;;;;;;;;4.25;2.00;;;;;;;;5039434;28;46263;-74
2021/12/07 00:19:03;;;;;;;;;3.75;2.00;;;;;;;;5055195;28;45338;-74
2021/12/07 00:21:28;;;;;;;;;4.00;3.00;;;;;;;;5055351;28;45641;-74
2021/12/07 00:23:54;;;;;;;;;1.00;1.00;;;;;;;;5055294;28;45376;-74
2021/12/07 00:26:19;;;;;;;;;2.50;1.25;;;;;;;;5054561;28;46309;-74
2021/12/07 00:28:44;;;;;;;;;5.00;5.00;;;;;;;;5055058;28;45486;-73
2021/12/07 00:31:23;;;;;;;;;3.00;2.00;;;;;;;;5055631;28;45392;-74
2021/12/07 00:34:12;;;;;;;;;4.00;1.25;;;;;;;;5054575;28;45434;-75
2021/12/07 00:36:39;;;;;;;;;3.00;1.50;;;;;;;;5054371;28;46425;-75
2021/12/07 00:39:05;;;;;;;;;3.00;2.00;;;;;;;;5054915;28;45505;-75
2021/12/07 00:41:30;;;;;;;;;2.50;1.25;;;;;;;;5054229;28;45304;-76
2021/12/07 00:43:56;;;;;;;;;2.75;1.75;;;;;;;;5054859;28;45305;-74
2021/12/07 00:46:23;;;;;;;;;3.00;1.75;;;;;;;;5055110;28;46883;-76
2021/12/07 00:48:48;;;;;;;;;3.50;2.00;;;;;;;;5055305;28;45463;-73
2021/12/07 00:51:14;;;;;;;;;2.25;2.25;;;;;;;;5054392;28;45433;-75
2021/12/07 00:53:39;;;;;;;;;1.25;1.25;;;;;;;;5054625;28;45461;-75
2021/12/07 00:56:05;;;;;;;;;3.25;2.25;;;;;;;;5054504;28;45415;-74
2021/12/07 00:58:31;;;;;;;;;1.75;1.75;;;;;;;;5054401;28;45292;-74
2021/12/07 01:00:59;;;;;;;;;0.75;0.75;;;;;;;;5055402;28;45202;-74
2021/12/07 01:03:25;;;;;;;;;1.00;1.00;;;;;;;;5054263;28;45752;-75
2021/12/07 01:05:54;;;;;;;;;3.00;2.00;;;;;;;;5054095;28;46616;-74
2021/12/07 01:24:50;;;;;;;;;3.25;2.00;;;;;;;;5011582;28;45554;-74
2021/12/07 01:27:17;;;;;;;;;2.00;0.75;;;;;;;;5012104;28;48104;-74
2021/12/07 01:29:49;;;;;;;;;1.75;1.25;;;;;;;;5011934;28;45544;-74
2021/12/07 01:37:34;;;;;;;;;1.75;0.75;;;;;;;;5016010;28;45593;-74
2021/12/07 01:50:50;;;;;;;;;4.00;1.00;;;;;;;;5057423;28;45274;-73
2021/12/07 02:01:26;;;;;;;;;0.00;0.00;;;;;;;;5057742;28;45513;-75
2021/12/07 02:03:51;;;;;;;;;1.00;1.00;;;;;;;;5058378;28;45549;-74
2021/12/07 02:06:17;;;;;;;;;0.50;0.50;;;;;;;;5057277;28;45340;-73
2021/12/07 02:08:42;;;;;;;;;0.00;0.00;;;;;;;;5056835;28;46185;-74
2021/12/07 02:11:07;;;;;;;;;0.00;0.00;;;;;;;;5056947;28;45402;-74
2021/12/07 02:16:02;;;;;;;;;2.25;0.00;;;;;;;;5054103;28;45381;-74
2021/12/07 02:18:28;;;;;;;;;0.25;0.25;;;;;;;;5057100;28;47345;-74
2021/12/07 02:20:53;;;;;;;;;1.75;1.75;;;;;;;;5056670;28;45478;-74
2021/12/07 02:23:18;;;;;;;;;0.00;0.00;;;;;;;;5055210;28;45626;-73
2021/12/07 02:25:44;;;;;;;;;3.75;1.00;;;;;;;;5057047;28;45399;-74
2021/12/07 02:28:16;;;;;;;;;1.00;1.00;;;;;;;;5056900;28;46272;-75
2021/12/07 02:30:42;;;;;;;;;0.00;0.00;;;;;;;;5057363;28;45326;-75
2021/12/07 02:33:09;;;;;;;;;0.75;0.75;;;;;;;;5056643;28;45319;-74
2021/12/07 02:35:35;;;;;;;;;2.00;1.00;;;;;;;;5056577;28;45521;-74
2021/12/07 02:38:00;;;;;;;;;0.75;0.75;;;;;;;;5056673;28;47089;-74
2021/12/07 02:40:25;;;;;;;;;0.00;0.00;;;;;;;;5056774;28;45518;-74
2021/12/07 02:42:51;;;;;;;;;1.25;0.00;;;;;;;;5056972;28;45346;-74
2021/12/07 02:45:17;;;;;;;;;1.25;1.25;;;;;;;;5056849;28;45426;-74
2021/12/07 02:47:44;;;;;;;;;0.75;0.75;;;;;;;;5056478;28;45447;-74
2021/12/07 02:50:10;;;;;;;;;0.50;0.00;;;;;;;;5056519;28;45411;-74
2021/12/07 02:52:36;;;;;;;;;1.50;1.50;;;;;;;;5056138;28;45480;-74
2021/12/07 02:55:02;;;;;;;;;1.00;1.00;;;;;;;;5057589;28;45479;-74
2021/12/07 02:57:27;;;;;;;;;0.00;0.00;;;;;;;;5056251;28;46730;-73
2021/12/07 03:00:00;;;;;;;;;0.00;0.00;;;;;;;;5056032;28;45416;-74
2021/12/07 03:02:26;;;;;;;;;0.00;0.00;;;;;;;;5056662;28;45173;-74
2021/12/07 03:05:04;;;;;;;;;0.00;0.00;;;;;;;;5056194;28;45378;-74
2021/12/07 03:08:06;;;;;;;;;2.50;0.75;;;;;;;;5056361;28;46180;-74
2021/12/07 03:26:50;;;;;;;;;2.00;1.00;;;;;;;;5055907;28;45394;-73
2021/12/07 03:29:15;;;;;;;;;1.00;1.00;;;;;;;;5055641;28;45287;-73
2021/12/07 03:31:40;;;;;;;;;1.00;1.00;;;;;;;;5055909;28;45238;-74
2021/12/07 03:34:05;;;;;;;;;2.00;1.00;;;;;;;;5055994;28;45476;-74
2021/12/07 03:36:31;;;;;;;;;2.00;2.00;;;;;;;;5056314;28;45441;-75
2021/12/07 03:38:56;;;;;;;;;0.75;0.75;;;;;;;;5055636;28;45612;-74
2021/12/07 03:41:22;;;;;;;;;1.25;1.25;;;;;;;;5055545;28;45477;-75
2021/12/07 03:43:47;;;;;;;;;1.00;1.00;;;;;;;;5055727;28;45560;-74
2021/12/07 03:46:13;;;;;;;;;2.50;1.00;;;;;;;;5056052;28;45487;-74
2021/12/07 03:48:39;;;;;;;;;6.00;2.50;;;;;;;;5055807;28;45546;-74
2021/12/07 03:51:04;;;;;;;;;2.00;2.00;;;;;;;;5056451;28;45408;-75
2021/12/07 03:53:30;;;;;;;;;0.75;0.75;;;;;;;;5054673;28;45307;-73
2021/12/07 03:55:56;;;;;;;;;3.25;1.25;;;;;;;;5055356;28;45327;-74
2021/12/07 03:58:21;;;;;;;;;1.00;1.00;;;;;;;;5055244;28;47211;-74
2021/12/07 04:00:47;;;;;;;;;2.25;1.00;;;;;;;;5056614;28;45508;-75
2021/12/07 04:03:14;;;;;;;;;5.00;2.50;;;;;;;;5055813;28;45339;-75
2021/12/07 04:05:45;;;;;;;;;1.00;1.00;;;;;;;;5056161;28;45380;-74
2021/12/07 04:08:11;;;;;;;;;4.00;2.00;;;;;;;;5055802;28;46232;-74
2021/12/07 04:10:36;;;;;;;;;1.50;1.50;;;;;;;;5057036;28;45433;-75
2021/12/07 04:13:02;;;;;;;;;2.75;1.00;;;;;;;;5058542;28;45545;-73
2021/12/07 04:15:28;;;;;;;;;1.00;1.00;;;;;;;;5056132;28;45490;-75
2021/12/07 04:17:53;;;;;;;;;5.25;1.00;;;;;;;;5056731;28;47240;-74
2021/12/07 04:20:19;;;;;;;;;0.75;0.75;;;;;;;;5057309;28;45536;-74
2021/12/07 04:22:45;;;;;;;;;1.50;1.00;;;;;;;;5056581;28;45493;-74
2021/12/07 04:25:11;;;;;;;;;1.75;1.00;;;;;;;;5055912;28;45384;-74
2021/12/07 04:27:38;;;;;;;;;1.75;0.00;;;;;;;;5055639;28;47592;-74
2021/12/07 04:30:06;;;;;;;;;0.00;0.00;;;;;;;;5055456;28;45457;-74
2021/12/07 04:32:32;;;;;;;;;1.75;1.00;;;;;;;;5054976;28;45507;-74
2021/12/07 04:34:57;;;;;;;;;3.00;1.50;;;;;;;;5053768;28;45311;-74
2021/12/07 04:37:22;;;;;;;;;0.75;0.75;;;;;;;;5054815;28;45369;-74
2021/12/07 04:39:48;;;;;;;;;1.50;0.00;;;;;;;;5055628;28;45506;-74
2021/12/07 04:42:13;;;;;;;;;1.25;1.00;;;;;;;;5054977;28;45395;-73
2021/12/07 04:44:45;;;;;;;;;1.75;1.75;;;;;;;;5054923;28;45571;-74
2021/12/07 04:47:21;;;;;;;;;0.50;0.50;;;;;;;;5054240;28;45426;-74
2021/12/07 04:50:21;;;;;;;;;2.00;0.75;;;;;;;;5054764;28;45381;-74
2021/12/07 04:58:08;;;;;;;;;1.00;1.00;;;;;;;;5051428;28;45494;-74
2021/12/07 05:00:34;;;;;;;;;0.75;0.75;;;;;;;;5054801;28;45394;-74
2021/12/07 05:03:04;;;;;;;;;2.00;0.00;;;;;;;;5054160;28;45505;-74
2021/12/07 05:05:34;;;;;;;;;0.50;0.50;;;;;;;;5056605;28;45160;-74
2021/12/07 05:08:03;;;;;;;;;0.75;0.75;;;;;;;;5060928;28;46997;-74
2021/12/07 05:16:02;;;;;;;;;3.00;2.00;;;;;;;;5060362;28;45397;-74
2021/12/07 05:24:01;;;;;;;;;2.25;1.00;;;;;;;;5011111;28;45407;-74
2021/12/07 05:39:50;;;;;;;;;2.75;2.50;;;;;;;;5017010;28;45456;-74
2021/12/07 05:42:15;;;;;;;;;2.75;1.75;;;;;;;;5016128;28;45465;-73
2021/12/07 05:44:40;;;;;;;;;3.50;3.50;;;;;;;;5015889;28;45494;-73
2021/12/07 05:47:06;;;;;;;;;4.50;2.00;;;;;;;;5016162;28;45493;-73
2021/12/07 05:49:31;;;;;;;;;8.00;2.75;;;;;;;;5000081;28;45502;-75
2021/12/07 05:51:56;;;;;;;;;2.25;2.00;;;;;;;;5017902;28;45647;-75
2021/12/07 05:54:21;;;;;;;;;3.25;3.25;;;;;;;;5016378;28;45368;-74
2021/12/07 05:56:47;;;;;;;;;7.50;3.00;;;;;;;;5016207;28;45424;-75
2021/12/07 05:59:12;;;;;;;;;3.50;2.75;;;;;;;;5008604;28;45588;-74
2021/12/07 06:01:38;;;;;;;;;7.00;3.75;;;;;;;;5035096;28;45559;-75
2021/12/07 06:04:03;;;;;;;;;8.50;3.00;;;;;;;;5060198;28;45307;-75
2021/12/07 06:06:28;;;;;;;;;4.75;3.50;;;;;;;;5060150;28;45475;-78
2021/12/07 06:08:54;;;;;;;;;6.00;2.00;;;;;;;;5058118;28;47442;-78
2021/12/07 06:11:21;;;;;;;;;7.75;3.50;;;;;;;;5059758;28;45208;-79
2021/12/07 06:13:47;;;;;;;;;3.75;2.00;;;;;;;;5059533;28;45375;-78
2021/12/07 06:16:15;;;;;;;;;3.25;3.25;;;;;;;;5059335;28;45256;-79
2021/12/07 06:18:40;;;;;;;;;3.00;3.00;;;;;;;;5055474;28;46467;-79
2021/12/07 06:21:05;;;;;;;;;4.00;4.00;;;;;;;;5055402;28;45433;-79
2021/12/07 06:23:30;;;;;;;;;3.50;2.75;;;;;;;;5056807;28;45461;-79
2021/12/07 06:25:57;;;;;;;;;4.00;3.75;;;;;;;;5056991;28;45314;-77
2021/12/07 06:28:22;;;;;;;;;7.00;3.75;;;;;;;;5055483;28;45352;-79
2021/12/07 06:30:48;;;;;;;;;4.75;4.75;;;;;;;;5055489;28;45469;-78
2021/12/07 06:33:14;;;;;;;;;7.50;2.75;;;;;;;;5056334;28;45253;-78
2021/12/07 06:35:39;;;;;;;;;6.25;4.50;;;;;;;;5056330;28;45389;-83
2021/12/07 06:38:05;;;;;;;;;4.50;4.00;;;;;;;;5056871;28;45399;-83
2021/12/07 06:40:30;;;;;;;;;7.00;4.25;;;;;;;;5055012;28;45464;-83
2021/12/07 06:42:59;;;;;;;;;5.75;4.25;;;;;;;;5056708;28;45230;-82
2021/12/07 06:45:25;;;;;;;;;6.00;4.25;;;;;;;;5054797;28;45468;-81
2021/12/07 06:47:50;;;;;;;;;9.00;8.75;;;;;;;;5056006;28;47214;-80
2021/12/07 06:50:15;;;;;;;;;4.75;4.75;;;;;;;;5055192;28;45363;-80
2021/12/07 06:52:41;;;;;;;;;7.00;6.50;;;;;;;;5055443;28;45412;-79
2021/12/07 06:55:06;;;;;;;;;8.25;6.00;;;;;;;;5054294;28;46986;-79
2021/12/07 06:57:32;;;;;;;;;5.25;4.00;;;;;;;;5055154;28;46258;-80
2021/12/07 06:59:57;;;;;;;;;7.50;6.00;;;;;;;;5055520;28;45406;-80
2021/12/07 07:02:22;;;;;;;;;7.50;6.00;;;;;;;;5055262;28;45565;-80
2021/12/07 07:04:47;;;;;;;;;10.25;9.00;;;;;;;;5053958;28;45527;-80
2021/12/07 07:07:13;;;;;;;;;7.00;7.00;;;;;;;;5054749;28;46563;-81
2021/12/07 07:09:38;;;;;;;;;9.25;7.75;;;;;;;;5055266;28;45438;-81
2021/12/07 07:12:07;;;;;;;;;8.25;7.25;;;;;;;;5052718;28;45427;-81
2021/12/07 07:14:32;;;;;;;;;11.25;9.25;;;;;;;;5054931;28;45497;-80
2021/12/07 07:16:57;;;;;;;;;9.75;6.25;;;;;;;;5054549;28;46248;-81
2021/12/07 07:19:25;;;;;;;;;3.50;1.75;;;;;;;;5054612;28;45300;-80
2021/12/07 07:21:51;;;;;;;;;5.50;5.50;;;;;;;;5055379;28;45482;-80
2021/12/07 07:24:17;;;;;;;;;5.25;5.25;;;;;;;;5054719;28;45260;-81
2021/12/07 07:26:42;;;;;;;;;17.75;11.75;;;;;;;;5054283;28;46191;-80
2021/12/07 07:29:10;;;;;;;;;16.75;12.00;;;;;;;;5054871;28;45422;-80
2021/12/07 07:31:40;;;;;;;;;10.75;8.25;;;;;;;;5053332;28;45511;-82
2021/12/07 07:34:09;;;;;;;;;13.75;11.25;;;;;;;;5055259;28;45481;-81
2021/12/07 07:36:34;;;;;;;;;8.00;8.00;;;;;;;;5054739;28;46287;-80
2021/12/07 07:38:59;;;;;;;;;15.25;11.25;;;;;;;;5054503;28;45293;-81
2021/12/07 07:41:24;;;;;;;;;15.75;14.00;;;;;;;;5052896;28;45583;-81
2021/12/07 07:43:50;;;;;;;;;15.50;13.00;;;;;;;;5054608;28;45145;-82
2021/12/07 07:46:16;;;;;;;;;18.50;16.25;;;;;;;;5054783;28;46291;-82
2021/12/07 07:48:41;;;;;;;;;19.25;17.25;;;;;;;;5054648;28;45395;-81
2021/12/07 07:51:07;;;;;;;;;18.75;15.75;;;;;;;;5054530;28;45453;-82
2021/12/07 07:53:35;;;;;;;;;18.50;18.25;;;;;;;;5054500;28;45221;-81
2021/12/07 07:56:00;;;;;;;;;18.75;15.25;;;;;;;;5054031;28;46097;-82
2021/12/07 07:58:26;;;;;;;;;23.00;20.25;;;;;;;;5051987;28;45708;-82
2021/12/07 08:00:51;;;;;;;;;17.00;13.25;;;;;;;;5055880;28;45410;-84
2021/12/07 08:03:16;;;;;;;;;21.50;17.75;;;;;;;;5058646;28;45348;-83
2021/12/07 08:05:45;;;;;;;;;21.75;19.50;;;;;;;;5055165;28;46169;-83
2021/12/07 08:08:10;;;;;;;;;17.75;14.50;;;;;;;;5054693;28;45423;-83
2021/12/07 08:10:36;;;;;;;;;14.25;13.75;;;;;;;;5054400;28;45206;-83
2021/12/07 08:13:03;;;;;;;;;17.00;15.00;;;;;;;;5056038;28;45229;-83
2021/12/07 08:32:44;;;;;;;;;19.75;18.00;;;;;;;;5305100;22;45401;-80
2021/12/07 08:35:34;;;;;;;;;28.00;21.50;;;;;;;;4972219;28;45492;-81
2021/12/07 08:38:00;;;;;;;;;24.50;23.00;;;;;;;;4974988;28;46513;-79
2021/12/07 08:40:29;;;;;;;;;25.25;20.25;;;;;;;;4971255;28;45388;-81
2021/12/07 08:42:55;;;;;;;;;24.50;19.75;;;;;;;;4993466;28;45544;-81
2021/12/07 08:45:21;;;;;;;;;16.00;14.50;;;;;;;;4976884;28;45485;-80
2021/12/07 08:47:47;;;;;;;;;21.00;19.75;;;;;;;;4976647;28;46046;-79
2021/12/07 08:50:16;;;;;;;;;25.00;18.50;;;;;;;;4976595;28;45418;-78
2021/12/07 08:52:42;;;;;;;;;25.25;20.00;;;;;;;;4973620;28;45535;-80
2021/12/07 09:00:27;;;;;;;;;25.00;21.25;;;;;;;;4976653;28;45301;-81
2021/12/07 09:02:52;;;;;;;;;22.25;17.00;;;;;;;;4972171;28;45186;-81
2021/12/07 09:05:17;;;;;;;;;21.25;18.50;;;;;;;;4974907;28;45320;-80
2021/12/07 09:07:43;;;;;;;;;23.50;22.75;;;;;;;;4972610;28;46410;-81
2021/12/07 09:10:08;;;;;;;;;24.00;21.00;;;;;;;;4976858;28;45315;-80
2021/12/07 09:12:33;;;;;;;;;21.50;16.75;;;;;;;;4977441;28;47669;-81
2021/12/07 09:14:59;;;;;;;;;19.50;17.75;;;;;;;;4976159;28;45447;-80
2021/12/07 09:17:24;;;;;;;;;24.50;18.00;;;;;;;;4975079;28;45525;-81
2021/12/07 09:19:49;;;;;;;;;19.50;16.00;;;;;;;;4973045;28;45495;-81
2021/12/07 09:22:15;;;;;;;;;33.75;27.50;;;;;;;;4974101;28;45422;-81
2021/12/07 09:24:40;;;;;;;;;30.00;24.25;;;;;;;;4978099;28;45414;-80
2021/12/07 09:27:06;;;;;;;;;20.75;18.50;;;;;;;;4976210;28;45939;-81
2021/12/07 09:29:31;;;;;;;;;23.75;20.50;;;;;;;;4974849;28;45454;-81
2021/12/07 09:31:57;;;;;;;;;24.50;19.75;;;;;;;;4975060;28;45331;-81
2021/12/07 09:34:22;;;;;;;;;16.75;13.00;;;;;;;;4973759;28;45594;-81
2021/12/07 09:47:08;;;;;;;;;21.00;18.25;;;;;;;;5506497;22;46371;-81
2021/12/07 09:49:33;;;;;;;;;16.75;16.75;;;;;;;;4990458;28;45364;-78
2021/12/07 09:51:58;;;;;;;;;21.25;18.25;;;;;;;;4993616;28;45465;-81
2021/12/07 09:54:23;;;;;;;;;20.00;17.50;;;;;;;;4996073;28;45381;-81
2021/12/07 09:56:49;;;;;;;;;12.50;12.25;;;;;;;;4993083;28;45953;-81
2021/12/07 09:59:15;;;;;;;;;11.25;9.25;;;;;;;;4994308;28;45487;-81
2021/12/07 10:01:42;;;;;;;;;13.00;9.50;;;;;;;;4995355;28;45268;-80
2021/12/07 10:04:07;;;;;;;;;13.25;13.00;;;;;;;;4996405;28;45465;-82
2021/12/07 10:06:33;;;;;;;;;12.00;12.00;;;;;;;;4992505;28;45577;-81
2021/12/07 10:08:59;;;;;;;;;12.00;9.75;;;;;;;;4994716;28;45309;-81
2021/12/07 10:11:24;;;;;;;;;15.50;12.50;;;;;;;;4993611;28;45427;-81
2021/12/07 10:13:52;;;;;;;;;13.25;11.75;;;;;;;;4991595;28;45558;-81
2021/12/07 10:16:19;;;;;;;;;14.00;10.75;;;;;;;;4995353;28;46400;-79
2021/12/07 10:18:44;;;;;;;;;16.00;13.75;;;;;;;;4994949;28;45414;-79
2021/12/07 10:21:26;;;;;;;;;15.00;13.00;;;;;;;;4994386;28;45399;-81
2021/12/07 10:24:06;;;;;;;;;18.25;15.00;;;;;;;;4996210;28;45534;-80
2021/12/07 10:26:33;;;;;;;;;14.25;13.00;;;;;;;;4998948;28;46267;-80
2021/12/07 10:29:00;;;;;;;;;15.75;13.00;;;;;;;;4995832;28;45497;-80
2021/12/07 10:31:40;;;;;;;;;16.00;16.00;;;;;;;;4993513;28;45586;-80
2021/12/07 10:34:07;;;;;;;;;15.00;12.50;;;;;;;;4992521;28;45422;-80
2021/12/07 10:41:45;;;;;;;;;18.00;11.50;;;;;;;;5974283;23;45578;-80
2021/12/07 10:44:10;;;;;;;;;13.50;13.00;;;;;;;;4994601;28;45542;-81
2021/12/07 10:46:42;;;;;;;;;18.25;14.25;;;;;;;;4993799;28;45527;-81
2021/12/07 10:49:29;;;;;;;;;13.00;10.50;;;;;;;;4994939;28;45491;-82
2021/12/07 10:54:31;;;;;;;;;14.75;14.25;;;;;;;;5590579;22;45541;-81
2021/12/07 10:56:58;;;;;;;;;17.25;14.25;;;;;;;;4994398;28;46105;-80
2021/12/07 10:59:23;;;;;;;;;15.50;14.50;;;;;;;;4994011;28;45349;-79
2021/12/07 11:01:49;;;;;;;;;25.50;20.50;;;;;;;;4994291;28;45407;-79
2021/12/07 11:04:33;;;;;;;;;14.50;12.25;;;;;;;;4994021;28;45246;-81
2021/12/07 11:07:10;;;;;;;;;16.25;15.50;;;;;;;;4996109;28;45633;-80
2021/12/07 11:14:52;;;;;;;;;14.75;14.75;;;;;;;;5396578;23;45782;-80
2021/12/07 11:17:19;;;;;;;;;30.75;18.50;;;;;;;;4992112;28;46446;-82
2021/12/07 11:19:44;;;;;;;;;19.75;16.25;;;;;;;;4993810;28;45178;-80
2021/12/07 11:22:12;;;;;;;;;16.50;14.50;;;;;;;;4994451;28;45436;-80
2021/12/07 11:24:39;;;;;;;;;18.25;14.25;;;;;;;;5004678;28;45567;-81
2021/12/07 11:30:09;;;;;;;;;19.75;17.00;;;;;;;;4991088;28;45353;-80
2021/12/07 14:10:09;;;;;;;;;5.00;5.00;;;;;;;;5310338;22;45790;-78
2021/12/07 14:18:58;;;;;;;;;8.00;4.25;;;;;;;;5016834;28;45444;-79
2021/12/07 14:37:04;;;;;;;;;4.25;2.75;;;;;;;;4860390;29;45493;-77
2021/12/07 14:42:34;;;;;;;;;6.00;5.25;;;;;;;;4858974;29;45380;-82
2021/12/07 14:48:36;;;;;;;;;;;;;;;;;;;;;
2021/12/07 16:00:31;;;;;;;;;4.25;3.00;;;;;;;;6136476;22;45837;-81
2021/12/07 16:03:00;;;;;;;;;4.00;3.00;;;;;;;;5053285;28;45484;-77
2021/12/07 16:05:26;;;;;;;;;3.25;2.75;;;;;;;;5052312;28;45325;-76
2021/12/07 16:07:52;;;;;;;;;2.25;2.25;;;;;;;;5054276;28;45478;-77
2021/12/07 16:10:23;;;;;;;;;4.00;2.25;;;;;;;;5054485;28;45504;-79
2021/12/07 16:13:07;;;;;;;;;3.75;3.00;;;;;;;;5052315;28;45279;-79
2021/12/07 16:15:33;;;;;;;;;1.00;0.00;;;;;;;;5055155;28;45451;-80
2021/12/07 16:17:59;;;;;;;;;4.75;2.75;;;;;;;;5053397;28;45491;-79
2021/12/07 16:20:25;;;;;;;;;4.00;4.00;;;;;;;;5054569;28;47303;-79
2021/12/07 16:22:50;;;;;;;;;6.00;4.25;;;;;;;;5054233;28;45540;-78
2021/12/07 16:25:16;;;;;;;;;4.25;3.75;;;;;;;;5055352;28;44796;-79
2021/12/07 17:08:36;;;;;;;;;;;;;;;;;;;;;
2021/12/07 17:11:03;;;;;;;;;2.00;2.00;;;;;;;;4829349;29;72899;-78
2021/12/07 17:13:29;;;;;;;;;3.50;2.00;;;;;;;;4838885;29;45653;-76
2021/12/07 17:15:54;;;;;;;;;4.75;1.00;;;;;;;;4843779;29;45701;-76
2021/12/07 17:18:19;;;;;;;;;3.00;3.00;;;;;;;;4829948;29;47451;-76
2021/12/07 17:20:46;;;;;;;;;3.00;2.00;;;;;;;;4846926;29;45376;-76
2021/12/07 17:23:12;;;;;;;;;2.25;2.25;;;;;;;;4834380;29;45493;-75
2021/12/07 17:25:38;;;;;;;;;1.50;1.00;;;;;;;;4858182;29;45448;-76
2021/12/07 17:28:03;;;;;;;;;3.25;2.00;;;;;;;;4896513;29;46527;-78
2021/12/07 17:30:29;;;;;;;;;2.00;1.75;;;;;;;;4893374;28;45299;-79
2021/12/07 17:32:55;;;;;;;;;4.50;4.50;;;;;;;;4924895;28;45605;-80
2021/12/07 17:48:37;;;;;;;;;5.25;5.25;;;;;;;;5075409;22;45744;-78
2021/12/07 17:51:30;;;;;;;;;3.75;3.75;;;;;;;;5051122;28;45618;-78
2021/12/07 17:54:08;;;;;;;;;5.75;3.00;;;;;;;;5051577;28;45385;-79
2021/12/07 17:56:53;;;;;;;;;2.00;2.00;;;;;;;;5054839;28;45459;-78
2021/12/07 18:05:58;;;;;;;;;3.50;2.00;;;;;;;;5049991;28;45477;-78
2021/12/07 18:14:30;;;;;;;;;4.50;4.50;;;;;;;;5052572;28;45372;-79
2021/12/07 18:16:57;;;;;;;;;3.25;2.50;;;;;;;;5054097;28;45294;-78
2021/12/07 18:19:22;;;;;;;;;0.25;0.25;;;;;;;;5054241;28;45338;-77
2021/12/07 18:21:47;;;;;;;;;6.75;5.75;;;;;;;;5054152;28;47162;-75
2021/12/07 18:24:12;;;;;;;;;4.00;4.00;;;;;;;;5055043;28;45479;-77
2021/12/07 18:26:38;;;;;;;;;4.25;3.50;;;;;;;;5035011;28;45361;-76
2021/12/07 18:29:04;;;;;;;;;4.50;3.50;;;;;;;;5054435;28;45556;-75
2021/12/07 18:31:29;;;;;;;;;4.75;3.75;;;;;;;;5053811;28;46579;-75
2021/12/07 18:33:54;;;;;;;;;4.75;4.75;;;;;;;;5056057;28;45355;-75
2021/12/07 18:36:19;;;;;;;;;6.25;3.50;;;;;;;;5054121;28;45341;-78
2021/12/07 18:38:48;;;;;;;;;3.50;3.00;;;;;;;;5056137;28;45436;-78
2021/12/07 18:41:16;;;;;;;;;2.00;2.00;;;;;;;;5055386;28;45605;-76
2021/12/07 18:43:42;;;;;;;;;4.25;2.25;;;;;;;;5054092;28;45312;-77
2021/12/07 18:46:07;;;;;;;;;3.25;2.25;;;;;;;;5056305;28;45480;-75
2021/12/07 18:48:34;;;;;;;;;8.50;5.00;;;;;;;;5053422;28;45331;-75
2021/12/07 18:51:00;;;;;;;;;4.00;4.00;;;;;;;;5053871;28;45349;-77
2021/12/07 18:53:25;;;;;;;;;5.50;4.50;;;;;;;;5054022;28;45260;-75
2021/12/07 18:55:51;;;;;;;;;2.75;2.75;;;;;;;;5034852;28;45489;-78
2021/12/07 18:58:17;;;;;;;;;7.25;4.00;;;;;;;;5054721;28;45396;-76
2021/12/07 19:00:44;;;;;;;;;8.25;2.75;;;;;;;;5053055;28;46853;-77
2021/12/07 19:03:10;;;;;;;;;7.50;5.00;;;;;;;;5051304;28;45497;-75
2021/12/07 19:05:37;;;;;;;;;4.00;4.00;;;;;;;;5053523;28;45403;-76
2021/12/07 19:08:02;;;;;;;;;6.75;4.75;;;;;;;;5053654;28;45442;-75
2021/12/07 19:10:27;;;;;;;;;3.75;3.50;;;;;;;;5055455;28;45452;-78
2021/12/07 19:12:53;;;;;;;;;5.75;5.75;;;;;;;;5055648;28;45272;-78
2021/12/07 19:15:19;;;;;;;;;7.00;7.00;;;;;;;;5053760;28;45546;-78
2021/12/07 19:17:47;;;;;;;;;5.50;5.50;;;;;;;;5051382;28;45370;-79
2021/12/07 19:20:14;;;;;;;;;8.00;7.75;;;;;;;;5053692;28;46720;-77
2021/12/07 19:22:40;;;;;;;;;5.00;5.00;;;;;;;;5053803;28;45737;-77
2021/12/07 19:25:06;;;;;;;;;10.00;7.50;;;;;;;;5055497;28;45381;-78
2021/12/07 19:27:32;;;;;;;;;5.00;4.00;;;;;;;;5053628;28;45416;-78
2021/12/07 19:29:57;;;;;;;;;0.00;0.00;;;;;;;;5053921;28;47203;-77
2021/12/07 19:32:23;;;;;;;;;5.50;5.50;;;;;;;;5053387;28;45354;-76
2021/12/07 19:34:48;;;;;;;;;9.75;8.50;;;;;;;;5034920;28;45528;-79
2021/12/07 19:37:14;;;;;;;;;10.25;10.25;;;;;;;;5054491;28;45467;-76
2021/12/07 19:39:39;;;;;;;;;8.00;8.00;;;;;;;;5054188;28;45361;-78
2021/12/07 19:42:05;;;;;;;;;8.50;6.50;;;;;;;;5051775;28;45400;-78
2021/12/07 19:44:30;;;;;;;;;8.75;7.00;;;;;;;;5053103;28;45424;-77
2021/12/07 19:46:56;;;;;;;;;9.00;6.50;;;;;;;;5053205;28;45535;-78
2021/12/07 19:49:21;;;;;;;;;10.25;7.25;;;;;;;;5053462;28;46232;-76
2021/12/07 19:51:49;;;;;;;;;8.50;8.50;;;;;;;;5037261;28;45381;-75
2021/12/07 19:54:15;;;;;;;;;6.25;5.50;;;;;;;;5053453;28;45425;-75
2021/12/07 19:56:43;;;;;;;;;6.00;6.00;;;;;;;;5052764;28;45582;-76
2021/12/07 20:01:46;;;;;;;;;10.00;7.25;;;;;;;;5741995;22;45465;-75
2021/12/07 20:04:12;;;;;;;;;5.75;4.50;;;;;;;;5047221;28;45410;-76
2021/12/07 20:06:39;;;;;;;;;9.00;6.75;;;;;;;;5054374;28;45769;-77
2021/12/07 20:09:05;;;;;;;;;6.50;4.75;;;;;;;;5052944;28;45409;-78
2021/12/07 20:14:52;;;;;;;;;2.00;2.00;;;;;;;;5051940;28;45604;-78
2021/12/07 20:20:54;;;;;;;;;5.25;3.50;;;;;;;;5053842;28;45856;-76
2021/12/07 20:23:30;;;;;;;;;3.50;3.50;;;;;;;;5055905;28;45433;-77
2021/12/07 20:25:59;;;;;;;;;3.50;2.50;;;;;;;;5053346;28;45377;-78
2021/12/07 20:40:28;;;;;;;;;2.25;2.00;;;;;;;;5240219;22;46864;-76
2021/12/07 20:42:57;;;;;;;;;1.75;1.75;;;;;;;;5053351;28;46381;-77
2021/12/07 20:45:23;;;;;;;;;1.75;1.75;;;;;;;;5052476;28;45347;-78
2021/12/07 20:47:49;;;;;;;;;4.00;4.00;;;;;;;;5052742;28;45445;-75
2021/12/07 20:50:14;;;;;;;;;3.00;1.50;;;;;;;;5052810;28;45542;-77
2021/12/07 20:52:39;;;;;;;;;4.00;3.00;;;;;;;;5053551;28;45503;-79
2021/12/07 20:55:05;;;;;;;;;3.25;2.50;;;;;;;;5055035;28;45454;-76
2021/12/07 20:57:30;;;;;;;;;4.75;3.25;;;;;;;;5047548;28;45333;-78
2021/12/07 20:59:55;;;;;;;;;3.00;2.00;;;;;;;;5046659;28;45870;-77
2021/12/07 21:02:21;;;;;;;;;3.50;3.50;;;;;;;;5052608;28;45443;-78
2021/12/07 21:04:48;;;;;;;;;2.25;2.00;;;;;;;;5052815;28;45397;-78
2021/12/07 21:07:13;;;;;;;;;2.00;2.00;;;;;;;;5054190;28;45357;-78
2021/12/07 21:09:39;;;;;;;;;4.00;1.75;;;;;;;;5052589;28;45546;-75
2021/12/07 21:12:04;;;;;;;;;3.75;3.00;;;;;;;;5052264;28;46479;-73
2021/12/07 21:14:29;;;;;;;;;2.50;1.75;;;;;;;;5052317;28;45331;-76
2021/12/07 21:16:55;;;;;;;;;3.00;2.00;;;;;;;;5052849;28;45277;-77
2021/12/07 21:19:20;;;;;;;;;1.00;1.00;;;;;;;;5052716;28;45366;-77
2021/12/07 21:21:45;;;;;;;;;6.00;1.75;;;;;;;;5053912;28;46427;-78
2021/12/07 21:24:11;;;;;;;;;3.00;3.00;;;;;;;;5052423;28;45266;-78
2021/12/07 21:26:36;;;;;;;;;5.00;5.00;;;;;;;;5052367;28;45383;-78
2021/12/07 21:29:03;;;;;;;;;2.00;2.00;;;;;;;;5052169;28;45461;-76
2021/12/07 21:31:29;;;;;;;;;2.50;2.00;;;;;;;;5033585;28;47093;-75
2021/12/07 21:33:54;;;;;;;;;3.00;3.00;;;;;;;;5053700;28;45550;-76
2021/12/07 21:36:20;;;;;;;;;7.00;5.00;;;;;;;;5050922;28;45437;-78
2021/12/07 21:38:46;;;;;;;;;2.00;2.00;;;;;;;;5050424;28;45372;-75
2021/12/07 21:41:11;;;;;;;;;7.00;4.50;;;;;;;;5051695;28;45794;-77
2021/12/07 21:43:37;;;;;;;;;1.00;1.00;;;;;;;;5051927;28;45509;-75
2021/12/07 21:46:02;;;;;;;;;2.25;2.00;;;;;;;;5054571;28;45418;-75
2021/12/07 21:48:28;;;;;;;;;5.25;3.00;;;;;;;;5054622;28;45607;-77
2021/12/07 21:50:53;;;;;;;;;3.00;3.00;;;;;;;;5055261;28;47408;-77
2021/12/07 21:53:18;;;;;;;;;6.25;3.00;;;;;;;;5053629;28;45563;-77
2021/12/07 21:55:44;;;;;;;;;10.00;3.00;;;;;;;;5055546;28;45557;-77
2021/12/07 21:58:10;;;;;;;;;3.25;3.25;;;;;;;;5056966;28;45463;-76
2021/12/07 22:00:37;;;;;;;;;6.50;3.00;;;;;;;;5055751;28;46139;-77
2021/12/07 22:03:03;;;;;;;;;8.25;3.25;;;;;;;;5055158;28;45570;-79
2021/12/07 22:05:29;;;;;;;;;2.75;2.00;;;;;;;;5055804;28;45443;-79
2021/12/07 22:07:54;;;;;;;;;4.75;3.25;;;;;;;;5055990;28;45447;-78
2021/12/07 22:10:21;;;;;;;;;6.75;4.00;;;;;;;;5056583;28;45816;-77
2021/12/07 22:12:47;;;;;;;;;2.50;1.25;;;;;;;;5039679;28;46038;-78
2021/12/07 22:15:15;;;;;;;;;6.00;4.25;;;;;;;;5054225;28;45260;-80
2021/12/07 22:17:41;;;;;;;;;5.00;1.25;;;;;;;;5054099;28;45388;-79
2021/12/07 22:20:07;;;;;;;;;3.00;1.75;;;;;;;;5057121;28;47070;-80
2021/12/07 22:22:36;;;;;;;;;3.00;1.75;;;;;;;;5056242;28;45974;-79
2021/12/07 22:25:03;;;;;;;;;3.75;2.00;;;;;;;;5057875;28;45292;-80
2021/12/07 22:27:30;;;;;;;;;2.00;2.00;;;;;;;;5055940;28;45689;-83
2021/12/07 22:29:57;;;;;;;;;1.25;0.25;;;;;;;;5055680;28;46176;-82
2021/12/07 22:32:23;;;;;;;;;4.00;2.75;;;;;;;;5056172;28;45375;-83
2021/12/07 22:34:50;;;;;;;;;0.75;0.75;;;;;;;;5054308;28;45561;-84
2021/12/07 22:37:15;;;;;;;;;1.75;0.00;;;;;;;;5057454;28;45436;-81
2021/12/07 22:39:41;;;;;;;;;2.25;1.25;;;;;;;;5054150;28;46306;-81